sensor_id;sensor_type;location;lat;lon;timestamp;P1;durP1;ratioP1;P2;durP2;ratioP2
7057;SDS011;3570;43.080;25.628;2022-11-02T00:01:59;13.17;;;7.10;;
7057;SDS011;3570;43.080;25.628;2022-11-02T00:04:42;12.50;;;6.47;;
7057;SDS011;3570;43.080;25.628;2022-11-02T00:07:26;15.60;;;6.93;;
7057;SDS011;3570;43.080;25.628;2022-11-02T00:10:10;12.07;;;7.40;;
7057;SDS011;3570;43.080;25.628;2022-11-02T00:12:54;16.13;;;6.67;;
7057;SDS011;3570;43.080;25.628;2022-11-02T00:15:39;10.70;;;6.87;;
7057;SDS011;3570;43.080;25.628;2022-11-02T00:18:23;12.63;;;6.77;;
7057;SDS011;3570;43.080;25.628;2022-11-02T00:21:07;12.73;;;6.87;;
7057;SDS011;3570;43.080;25.628;2022-11-02T00:23:52;13.10;;;7.73;;
7057;SDS011;3570;43.080;25.628;2022-11-02T00:26:37;14.60;;;6.90;;
7057;SDS011;3570;43.080;25.628;2022-11-02T00:29:22;12.63;;;7.17;;
7057;SDS011;3570;43.080;25.628;2022-11-02T00:32:07;12.80;;;7.13;;
7057;SDS011;3570;43.080;25.628;2022-11-02T00:34:51;13.60;;;6.77;;
7057;SDS011;3570;43.080;25.628;2022-11-02T00:37:35;12.33;;;6.93;;
7057;SDS011;3570;43.080;25.628;2022-11-02T00:40:19;9.67;;;6.57;;
7057;SDS011;3570;43.080;25.628;2022-11-02T00:43:04;12.53;;;7.37;;
7057;SDS011;3570;43.080;25.628;2022-11-02T00:45:48;15.97;;;7.33;;
7057;SDS011;3570;43.080;25.628;2022-11-02T00:48:32;16.37;;;7.73;;
7057;SDS011;3570;43.080;25.628;2022-11-02T00:51:16;11.67;;;6.30;;
7057;SDS011;3570;43.080;25.628;2022-11-02T00:54:00;12.00;;;7.47;;
7057;SDS011;3570;43.080;25.628;2022-11-02T00:56:44;15.03;;;7.07;;
7057;SDS011;3570;43.080;25.628;2022-11-02T00:59:28;17.13;;;7.60;;
7057;SDS011;3570;43.080;25.628;2022-11-02T01:02:12;18.40;;;7.17;;
7057;SDS011;3570;43.080;25.628;2022-11-02T01:04:56;12.47;;;7.07;;
7057;SDS011;3570;43.080;25.628;2022-11-02T01:07:40;12.57;;;6.67;;
7057;SDS011;3570;43.080;25.628;2022-11-02T01:10:24;10.67;;;6.77;;
7057;SDS011;3570;43.080;25.628;2022-11-02T01:13:08;11.60;;;6.60;;
7057;SDS011;3570;43.080;25.628;2022-11-02T01:15:52;11.87;;;7.00;;
7057;SDS011;3570;43.080;25.628;2022-11-02T01:18:36;14.90;;;7.50;;
7057;SDS011;3570;43.080;25.628;2022-11-02T01:21:21;16.87;;;7.70;;
7057;SDS011;3570;43.080;25.628;2022-11-02T01:24:05;12.67;;;7.23;;
7057;SDS011;3570;43.080;25.628;2022-11-02T01:26:50;14.63;;;7.53;;
7057;SDS011;3570;43.080;25.628;2022-11-02T01:29:35;20.10;;;8.10;;
7057;SDS011;3570;43.080;25.628;2022-11-02T01:32:19;16.17;;;7.67;;
7057;SDS011;3570;43.080;25.628;2022-11-02T01:35:03;16.43;;;7.30;;
7057;SDS011;3570;43.080;25.628;2022-11-02T01:37:47;14.63;;;7.67;;
7057;SDS011;3570;43.080;25.628;2022-11-02T01:40:35;21.87;;;7.93;;
7057;SDS011;3570;43.080;25.628;2022-11-02T01:43:24;15.03;;;7.17;;
7057;SDS011;3570;43.080;25.628;2022-11-02T01:49:05;10.70;;;6.93;;
7057;SDS011;3570;43.080;25.628;2022-11-02T01:54:44;15.40;;;7.00;;
7057;SDS011;3570;43.080;25.628;2022-11-02T01:57:33;10.00;;;6.17;;
7057;SDS011;3570;43.080;25.628;2022-11-02T02:00:19;12.40;;;6.30;;
7057;SDS011;3570;43.080;25.628;2022-11-02T02:03:06;13.93;;;7.70;;
7057;SDS011;3570;43.080;25.628;2022-11-02T02:05:59;13.43;;;7.10;;
7057;SDS011;3570;43.080;25.628;2022-11-02T02:08:48;10.60;;;6.17;;
7057;SDS011;3570;43.080;25.628;2022-11-02T02:11:34;11.67;;;7.07;;
7057;SDS011;3570;43.080;25.628;2022-11-02T02:14:20;14.67;;;7.10;;
7057;SDS011;3570;43.080;25.628;2022-11-02T02:17:13;14.17;;;6.77;;
7057;SDS011;3570;43.080;25.628;2022-11-02T02:20:06;10.53;;;7.20;;
7057;SDS011;3570;43.080;25.628;2022-11-02T02:23:12;12.60;;;7.63;;
7057;SDS011;3570;43.080;25.628;2022-11-02T02:26:13;14.93;;;7.63;;
7057;SDS011;3570;43.080;25.628;2022-11-02T02:35:00;12.33;;;7.00;;
7057;SDS011;3570;43.080;25.628;2022-11-02T02:37:54;14.93;;;7.17;;
7057;SDS011;3570;43.080;25.628;2022-11-02T02:41:12;11.73;;;7.27;;
7057;SDS011;3570;43.080;25.628;2022-11-02T02:44:01;18.00;;;7.90;;
7057;SDS011;3570;43.080;25.628;2022-11-02T02:46:52;12.47;;;7.17;;
7057;SDS011;3570;43.080;25.628;2022-11-02T02:49:43;14.00;;;7.00;;
7057;SDS011;3570;43.080;25.628;2022-11-02T02:52:32;12.73;;;7.40;;
7057;SDS011;3570;43.080;25.628;2022-11-02T02:55:20;11.17;;;7.03;;
7057;SDS011;3570;43.080;25.628;2022-11-02T02:58:11;9.30;;;6.30;;
7057;SDS011;3570;43.080;25.628;2022-11-02T03:00:59;14.80;;;7.27;;
7057;SDS011;3570;43.080;25.628;2022-11-02T03:03:44;13.03;;;7.10;;
7057;SDS011;3570;43.080;25.628;2022-11-02T03:06:30;19.97;;;8.03;;
7057;SDS011;3570;43.080;25.628;2022-11-02T03:24:29;13.23;;;7.00;;
7057;SDS011;3570;43.080;25.628;2022-11-02T03:30:04;12.20;;;7.43;;
7057;SDS011;3570;43.080;25.628;2022-11-02T03:36:02;8.67;;;5.87;;
7057;SDS011;3570;43.080;25.628;2022-11-02T03:39:10;10.90;;;6.43;;
7057;SDS011;3570;43.080;25.628;2022-11-02T03:41:56;11.93;;;6.87;;
7057;SDS011;3570;43.080;25.628;2022-11-02T03:44:44;9.80;;;5.80;;
7057;SDS011;3570;43.080;25.628;2022-11-02T03:47:33;12.57;;;7.03;;
7057;SDS011;3570;43.080;25.628;2022-11-02T03:50:20;10.73;;;6.97;;
7057;SDS011;3570;43.080;25.628;2022-11-02T03:53:08;13.20;;;7.00;;
7057;SDS011;3570;43.080;25.628;2022-11-02T03:55:59;12.17;;;6.13;;
7057;SDS011;3570;43.080;25.628;2022-11-02T03:58:48;12.30;;;5.87;;
7057;SDS011;3570;43.080;25.628;2022-11-02T04:01:38;16.03;;;6.97;;
7057;SDS011;3570;43.080;25.628;2022-11-02T04:04:28;14.47;;;7.27;;
7057;SDS011;3570;43.080;25.628;2022-11-02T04:07:13;10.90;;;6.93;;
7057;SDS011;3570;43.080;25.628;2022-11-02T04:09:59;10.70;;;6.33;;
7057;SDS011;3570;43.080;25.628;2022-11-02T04:12:43;15.30;;;7.17;;
7057;SDS011;3570;43.080;25.628;2022-11-02T04:15:46;15.00;;;7.17;;
7057;SDS011;3570;43.080;25.628;2022-11-02T04:18:30;12.80;;;7.07;;
7057;SDS011;3570;43.080;25.628;2022-11-02T04:21:33;16.97;;;8.10;;
7057;SDS011;3570;43.080;25.628;2022-11-02T04:24:17;13.00;;;7.50;;
7057;SDS011;3570;43.080;25.628;2022-11-02T04:27:20;13.90;;;7.33;;
7057;SDS011;3570;43.080;25.628;2022-11-02T04:30:04;10.97;;;6.77;;
7057;SDS011;3570;43.080;25.628;2022-11-02T04:32:49;13.77;;;7.67;;
7057;SDS011;3570;43.080;25.628;2022-11-02T04:35:52;11.57;;;7.07;;
7057;SDS011;3570;43.080;25.628;2022-11-02T04:38:36;14.43;;;7.57;;
7057;SDS011;3570;43.080;25.628;2022-11-02T04:41:23;12.80;;;7.30;;
7057;SDS011;3570;43.080;25.628;2022-11-02T04:44:25;14.10;;;7.47;;
7057;SDS011;3570;43.080;25.628;2022-11-02T04:47:10;15.67;;;7.57;;
7057;SDS011;3570;43.080;25.628;2022-11-02T04:49:54;12.33;;;7.37;;
7057;SDS011;3570;43.080;25.628;2022-11-02T04:52:38;21.87;;;8.10;;
7057;SDS011;3570;43.080;25.628;2022-11-02T04:55:22;19.90;;;7.20;;
7057;SDS011;3570;43.080;25.628;2022-11-02T04:58:05;12.83;;;7.27;;
7057;SDS011;3570;43.080;25.628;2022-11-02T05:00:49;12.50;;;7.60;;
7057;SDS011;3570;43.080;25.628;2022-11-02T05:03:34;15.33;;;8.17;;
7057;SDS011;3570;43.080;25.628;2022-11-02T05:06:18;14.87;;;8.03;;
7057;SDS011;3570;43.080;25.628;2022-11-02T05:09:03;15.77;;;7.60;;
7057;SDS011;3570;43.080;25.628;2022-11-02T05:11:47;15.00;;;7.83;;
7057;SDS011;3570;43.080;25.628;2022-11-02T05:14:31;15.47;;;8.57;;
7057;SDS011;3570;43.080;25.628;2022-11-02T05:17:15;17.37;;;8.90;;
7057;SDS011;3570;43.080;25.628;2022-11-02T05:19:59;18.80;;;8.10;;
7057;SDS011;3570;43.080;25.628;2022-11-02T05:22:43;18.63;;;8.73;;
7057;SDS011;3570;43.080;25.628;2022-11-02T05:25:27;24.93;;;8.40;;
7057;SDS011;3570;43.080;25.628;2022-11-02T05:28:11;19.00;;;8.90;;
7057;SDS011;3570;43.080;25.628;2022-11-02T05:30:56;17.07;;;9.07;;
7057;SDS011;3570;43.080;25.628;2022-11-02T05:33:43;24.83;;;9.23;;
7057;SDS011;3570;43.080;25.628;2022-11-02T05:36:27;20.73;;;10.03;;
7057;SDS011;3570;43.080;25.628;2022-11-02T05:39:11;17.90;;;9.67;;
7057;SDS011;3570;43.080;25.628;2022-11-02T05:41:55;16.27;;;9.87;;
7057;SDS011;3570;43.080;25.628;2022-11-02T05:44:39;17.83;;;9.97;;
7057;SDS011;3570;43.080;25.628;2022-11-02T05:47:22;16.60;;;9.13;;
7057;SDS011;3570;43.080;25.628;2022-11-02T05:50:06;19.77;;;9.63;;
7057;SDS011;3570;43.080;25.628;2022-11-02T05:52:51;22.97;;;9.07;;
7057;SDS011;3570;43.080;25.628;2022-11-02T05:55:35;16.73;;;8.50;;
7057;SDS011;3570;43.080;25.628;2022-11-02T05:58:19;17.37;;;7.87;;
7057;SDS011;3570;43.080;25.628;2022-11-02T06:01:04;20.57;;;10.10;;
7057;SDS011;3570;43.080;25.628;2022-11-02T06:03:50;15.83;;;9.10;;
7057;SDS011;3570;43.080;25.628;2022-11-02T06:06:34;15.73;;;8.73;;
7057;SDS011;3570;43.080;25.628;2022-11-02T06:09:17;18.60;;;8.90;;
7057;SDS011;3570;43.080;25.628;2022-11-02T06:12:02;18.13;;;8.20;;
7057;SDS011;3570;43.080;25.628;2022-11-02T06:14:46;16.97;;;8.50;;
7057;SDS011;3570;43.080;25.628;2022-11-02T06:17:37;19.97;;;8.13;;
7057;SDS011;3570;43.080;25.628;2022-11-02T06:20:22;15.43;;;8.53;;
7057;SDS011;3570;43.080;25.628;2022-11-02T06:23:06;20.03;;;7.10;;
7057;SDS011;3570;43.080;25.628;2022-11-02T06:25:51;15.07;;;7.10;;
7057;SDS011;3570;43.080;25.628;2022-11-02T06:28:36;15.60;;;8.40;;
7057;SDS011;3570;43.080;25.628;2022-11-02T06:31:20;15.27;;;7.97;;
7057;SDS011;3570;43.080;25.628;2022-11-02T06:34:04;15.77;;;8.23;;
7057;SDS011;3570;43.080;25.628;2022-11-02T06:36:49;18.30;;;7.33;;
7057;SDS011;3570;43.080;25.628;2022-11-02T06:39:33;22.30;;;7.50;;
7057;SDS011;3570;43.080;25.628;2022-11-02T06:42:16;15.00;;;7.03;;
7057;SDS011;3570;43.080;25.628;2022-11-02T06:45:01;11.33;;;7.03;;
7057;SDS011;3570;43.080;25.628;2022-11-02T06:47:46;14.33;;;8.27;;
7057;SDS011;3570;43.080;25.628;2022-11-02T06:50:31;15.33;;;7.20;;
7057;SDS011;3570;43.080;25.628;2022-11-02T06:53:15;18.10;;;8.10;;
7057;SDS011;3570;43.080;25.628;2022-11-02T06:56:01;14.40;;;7.50;;
7057;SDS011;3570;43.080;25.628;2022-11-02T06:58:45;15.30;;;7.37;;
7057;SDS011;3570;43.080;25.628;2022-11-02T07:01:28;15.43;;;7.57;;
7057;SDS011;3570;43.080;25.628;2022-11-02T07:04:12;14.90;;;7.17;;
7057;SDS011;3570;43.080;25.628;2022-11-02T07:06:56;15.60;;;7.57;;
7057;SDS011;3570;43.080;25.628;2022-11-02T07:09:40;13.80;;;6.73;;
7057;SDS011;3570;43.080;25.628;2022-11-02T07:12:24;17.07;;;8.07;;
7057;SDS011;3570;43.080;25.628;2022-11-02T07:15:08;15.20;;;8.37;;
7057;SDS011;3570;43.080;25.628;2022-11-02T07:17:53;18.27;;;6.93;;
7057;SDS011;3570;43.080;25.628;2022-11-02T07:20:37;17.67;;;7.77;;
7057;SDS011;3570;43.080;25.628;2022-11-02T07:23:21;16.63;;;8.17;;
7057;SDS011;3570;43.080;25.628;2022-11-02T07:26:06;15.30;;;6.93;;
7057;SDS011;3570;43.080;25.628;2022-11-02T07:28:50;13.03;;;7.07;;
7057;SDS011;3570;43.080;25.628;2022-11-02T07:31:34;19.13;;;7.63;;
7057;SDS011;3570;43.080;25.628;2022-11-02T07:34:18;14.93;;;6.83;;
7057;SDS011;3570;43.080;25.628;2022-11-02T07:37:02;19.30;;;6.77;;
7057;SDS011;3570;43.080;25.628;2022-11-02T07:39:46;24.83;;;7.23;;
7057;SDS011;3570;43.080;25.628;2022-11-02T07:42:30;16.63;;;6.40;;
7057;SDS011;3570;43.080;25.628;2022-11-02T07:45:14;14.97;;;7.33;;
7057;SDS011;3570;43.080;25.628;2022-11-02T07:48:12;15.40;;;7.20;;
7057;SDS011;3570;43.080;25.628;2022-11-02T07:50:57;14.83;;;7.90;;
7057;SDS011;3570;43.080;25.628;2022-11-02T07:53:42;18.70;;;7.93;;
7057;SDS011;3570;43.080;25.628;2022-11-02T07:56:26;14.07;;;8.47;;
7057;SDS011;3570;43.080;25.628;2022-11-02T07:59:10;15.80;;;8.30;;
7057;SDS011;3570;43.080;25.628;2022-11-02T08:01:55;18.73;;;7.90;;
7057;SDS011;3570;43.080;25.628;2022-11-02T08:04:39;19.83;;;7.87;;
7057;SDS011;3570;43.080;25.628;2022-11-02T08:07:23;20.13;;;7.40;;
7057;SDS011;3570;43.080;25.628;2022-11-02T08:10:07;22.40;;;7.57;;
7057;SDS011;3570;43.080;25.628;2022-11-02T08:12:52;13.60;;;7.63;;
7057;SDS011;3570;43.080;25.628;2022-11-02T08:15:36;15.43;;;7.70;;
7057;SDS011;3570;43.080;25.628;2022-11-02T08:18:22;19.40;;;7.47;;
7057;SDS011;3570;43.080;25.628;2022-11-02T08:21:08;15.03;;;8.17;;
7057;SDS011;3570;43.080;25.628;2022-11-02T08:23:51;17.40;;;7.63;;
7057;SDS011;3570;43.080;25.628;2022-11-02T08:26:37;18.63;;;9.00;;
7057;SDS011;3570;43.080;25.628;2022-11-02T08:29:21;16.53;;;8.20;;
7057;SDS011;3570;43.080;25.628;2022-11-02T08:32:05;17.10;;;8.40;;
7057;SDS011;3570;43.080;25.628;2022-11-02T08:34:49;17.67;;;9.13;;
7057;SDS011;3570;43.080;25.628;2022-11-02T08:37:33;29.30;;;10.30;;
7057;SDS011;3570;43.080;25.628;2022-11-02T08:40:17;17.90;;;9.57;;
7057;SDS011;3570;43.080;25.628;2022-11-02T08:43:02;27.23;;;10.67;;
7057;SDS011;3570;43.080;25.628;2022-11-02T08:45:51;24.40;;;9.43;;
7057;SDS011;3570;43.080;25.628;2022-11-02T08:48:35;22.63;;;8.87;;
7057;SDS011;3570;43.080;25.628;2022-11-02T08:51:19;19.67;;;10.00;;
7057;SDS011;3570;43.080;25.628;2022-11-02T08:54:03;23.50;;;10.03;;
7057;SDS011;3570;43.080;25.628;2022-11-02T08:56:47;16.50;;;8.67;;
7057;SDS011;3570;43.080;25.628;2022-11-02T08:59:31;16.47;;;9.83;;
7057;SDS011;3570;43.080;25.628;2022-11-02T09:02:18;17.70;;;9.53;;
7057;SDS011;3570;43.080;25.628;2022-11-02T09:05:02;17.47;;;9.07;;
7057;SDS011;3570;43.080;25.628;2022-11-02T09:07:47;15.07;;;8.93;;
7057;SDS011;3570;43.080;25.628;2022-11-02T09:10:32;18.90;;;8.38;;
7057;SDS011;3570;43.080;25.628;2022-11-02T09:13:19;16.83;;;8.52;;
7057;SDS011;3570;43.080;25.628;2022-11-02T09:16:08;18.10;;;7.88;;
7057;SDS011;3570;43.080;25.628;2022-11-02T09:18:52;16.95;;;7.43;;
7057;SDS011;3570;43.080;25.628;2022-11-02T09:21:36;12.25;;;6.45;;
7057;SDS011;3570;43.080;25.628;2022-11-02T09:24:20;13.15;;;7.05;;
7057;SDS011;3570;43.080;25.628;2022-11-02T09:27:04;14.35;;;8.05;;
7057;SDS011;3570;43.080;25.628;2022-11-02T09:29:48;15.77;;;6.10;;
7057;SDS011;3570;43.080;25.628;2022-11-02T09:32:32;11.70;;;6.50;;
7057;SDS011;3570;43.080;25.628;2022-11-02T09:35:16;12.90;;;6.25;;
7057;SDS011;3570;43.080;25.628;2022-11-02T09:38:01;11.25;;;6.90;;
7057;SDS011;3570;43.080;25.628;2022-11-02T09:46:52;14.10;;;5.57;;
7057;SDS011;3570;43.080;25.628;2022-11-02T09:49:37;10.18;;;5.68;;
7057;SDS011;3570;43.080;25.628;2022-11-02T09:52:26;4.28;;;2.58;;
7057;SDS011;3570;43.080;25.628;2022-11-02T09:55:27;8.48;;;2.83;;
7057;SDS011;3570;43.080;25.628;2022-11-02T09:58:19;8.23;;;2.72;;
7057;SDS011;3570;43.080;25.628;2022-11-02T10:01:18;12.40;;;2.75;;
7057;SDS011;3570;43.080;25.628;2022-11-02T10:20:06;3.22;;;2.40;;
7057;SDS011;3570;43.080;25.628;2022-11-02T10:23:04;5.88;;;2.85;;
7057;SDS011;3570;43.080;25.628;2022-11-02T10:25:55;5.47;;;2.67;;
7057;SDS011;3570;43.080;25.628;2022-11-02T10:28:40;7.05;;;2.83;;
7057;SDS011;3570;43.080;25.628;2022-11-02T10:31:30;6.40;;;2.88;;
7057;SDS011;3570;43.080;25.628;2022-11-02T10:34:23;8.10;;;3.55;;
7057;SDS011;3570;43.080;25.628;2022-11-02T10:51:54;7.40;;;3.20;;
7057;SDS011;3570;43.080;25.628;2022-11-02T10:54:38;6.35;;;2.95;;
7057;SDS011;3570;43.080;25.628;2022-11-02T10:57:22;10.48;;;3.47;;
7057;SDS011;3570;43.080;25.628;2022-11-02T11:00:28;6.10;;;3.60;;
7057;SDS011;3570;43.080;25.628;2022-11-02T11:03:15;7.35;;;3.30;;
7057;SDS011;3570;43.080;25.628;2022-11-02T11:06:03;8.50;;;3.58;;
7057;SDS011;3570;43.080;25.628;2022-11-02T11:08:48;5.90;;;3.53;;
7057;SDS011;3570;43.080;25.628;2022-11-02T11:11:35;8.55;;;3.95;;
7057;SDS011;3570;43.080;25.628;2022-11-02T11:14:20;9.60;;;4.22;;
7057;SDS011;3570;43.080;25.628;2022-11-02T11:17:12;5.68;;;3.53;;
7057;SDS011;3570;43.080;25.628;2022-11-02T11:19:59;7.18;;;3.50;;
7057;SDS011;3570;43.080;25.628;2022-11-02T11:22:46;10.82;;;3.97;;
7057;SDS011;3570;43.080;25.628;2022-11-02T11:26:05;3.75;;;2.35;;
7057;SDS011;3570;43.080;25.628;2022-11-02T11:28:55;11.00;;;3.53;;
7057;SDS011;3570;43.080;25.628;2022-11-02T11:31:39;10.10;;;2.92;;
7057;SDS011;3570;43.080;25.628;2022-11-02T11:34:24;7.72;;;2.42;;
7057;SDS011;3570;43.080;25.628;2022-11-02T11:37:11;3.97;;;2.67;;
7057;SDS011;3570;43.080;25.628;2022-11-02T11:40:20;7.03;;;2.60;;
7057;SDS011;3570;43.080;25.628;2022-11-02T11:43:08;8.15;;;2.58;;
7057;SDS011;3570;43.080;25.628;2022-11-02T11:48:53;6.60;;;2.67;;
7057;SDS011;3570;43.080;25.628;2022-11-02T11:51:42;5.60;;;2.47;;
7057;SDS011;3570;43.080;25.628;2022-11-02T11:54:33;3.83;;;2.30;;
7057;SDS011;3570;43.080;25.628;2022-11-02T11:57:25;3.97;;;2.83;;
7057;SDS011;3570;43.080;25.628;2022-11-02T12:00:27;4.28;;;2.45;;
7057;SDS011;3570;43.080;25.628;2022-11-02T12:03:12;4.05;;;2.42;;
7057;SDS011;3570;43.080;25.628;2022-11-02T12:16:02;5.85;;;2.97;;
7057;SDS011;3570;43.080;25.628;2022-11-02T12:25:19;8.02;;;2.45;;
7057;SDS011;3570;43.080;25.628;2022-11-02T12:28:15;7.65;;;3.00;;
7057;SDS011;3570;43.080;25.628;2022-11-02T12:31:18;6.05;;;2.35;;
7057;SDS011;3570;43.080;25.628;2022-11-02T12:37:04;4.95;;;2.63;;
7057;SDS011;3570;43.080;25.628;2022-11-02T12:52:43;6.65;;;2.40;;
7057;SDS011;3570;43.080;25.628;2022-11-02T12:55:38;4.63;;;2.00;;
7057;SDS011;3570;43.080;25.628;2022-11-02T12:58:27;4.80;;;2.50;;
7057;SDS011;3570;43.080;25.628;2022-11-02T13:01:27;4.82;;;2.03;;
7057;SDS011;3570;43.080;25.628;2022-11-02T13:04:27;8.00;;;2.30;;
7057;SDS011;3570;43.080;25.628;2022-11-02T13:07:24;7.63;;;2.20;;
7057;SDS011;3570;43.080;25.628;2022-11-02T13:10:19;8.73;;;2.33;;
7057;SDS011;3570;43.080;25.628;2022-11-02T13:13:11;3.65;;;2.33;;
7057;SDS011;3570;43.080;25.628;2022-11-02T13:15:59;6.10;;;2.75;;
7057;SDS011;3570;43.080;25.628;2022-11-02T13:18:46;10.02;;;2.60;;
7057;SDS011;3570;43.080;25.628;2022-11-02T13:21:36;4.70;;;2.17;;
7057;SDS011;3570;43.080;25.628;2022-11-02T13:24:36;12.02;;;2.78;;
7057;SDS011;3570;43.080;25.628;2022-11-02T13:27:26;5.95;;;2.42;;
7057;SDS011;3570;43.080;25.628;2022-11-02T13:30:15;4.13;;;2.20;;
7057;SDS011;3570;43.080;25.628;2022-11-02T13:35:56;3.65;;;2.03;;
7057;SDS011;3570;43.080;25.628;2022-11-02T13:50:23;9.27;;;3.03;;
7057;SDS011;3570;43.080;25.628;2022-11-02T13:53:12;11.30;;;2.35;;
7057;SDS011;3570;43.080;25.628;2022-11-02T13:56:04;7.55;;;3.15;;
7057;SDS011;3570;43.080;25.628;2022-11-02T13:58:56;13.52;;;5.63;;
7057;SDS011;3570;43.080;25.628;2022-11-02T14:01:43;5.32;;;3.03;;
7057;SDS011;3570;43.080;25.628;2022-11-02T14:04:28;17.17;;;5.47;;
7057;SDS011;3570;43.080;25.628;2022-11-02T14:07:39;9.40;;;4.05;;
7057;SDS011;3570;43.080;25.628;2022-11-02T14:10:24;18.80;;;8.18;;
7057;SDS011;3570;43.080;25.628;2022-11-02T14:13:12;3.88;;;2.38;;
7057;SDS011;3570;43.080;25.628;2022-11-02T14:15:56;7.85;;;2.60;;
7057;SDS011;3570;43.080;25.628;2022-11-02T14:18:41;7.82;;;3.17;;
7057;SDS011;3570;43.080;25.628;2022-11-02T14:27:35;7.18;;;3.17;;
7057;SDS011;3570;43.080;25.628;2022-11-02T14:30:39;3.22;;;2.35;;
7057;SDS011;3570;43.080;25.628;2022-11-02T14:33:42;6.60;;;2.67;;
7057;SDS011;3570;43.080;25.628;2022-11-02T14:42:34;6.85;;;2.50;;
7057;SDS011;3570;43.080;25.628;2022-11-02T14:49:16;9.13;;;4.33;;
7057;SDS011;3570;43.080;25.628;2022-11-02T14:52:16;41.03;;;13.97;;
7057;SDS011;3570;43.080;25.628;2022-11-02T14:58:23;32.87;;;14.47;;
7057;SDS011;3570;43.080;25.628;2022-11-02T15:01:11;24.50;;;11.20;;
7057;SDS011;3570;43.080;25.628;2022-11-02T15:03:57;36.10;;;11.73;;
7057;SDS011;3570;43.080;25.628;2022-11-02T15:06:52;19.53;;;7.20;;
7057;SDS011;3570;43.080;25.628;2022-11-02T15:09:58;26.77;;;10.53;;
7057;SDS011;3570;43.080;25.628;2022-11-02T15:18:53;7.67;;;3.33;;
7057;SDS011;3570;43.080;25.628;2022-11-02T15:21:38;7.63;;;3.10;;
7057;SDS011;3570;43.080;25.628;2022-11-02T15:24:24;4.30;;;3.20;;
7057;SDS011;3570;43.080;25.628;2022-11-02T15:27:11;7.67;;;2.70;;
7057;SDS011;3570;43.080;25.628;2022-11-02T15:29:55;4.67;;;2.87;;
7057;SDS011;3570;43.080;25.628;2022-11-02T15:32:43;5.80;;;3.43;;
7057;SDS011;3570;43.080;25.628;2022-11-02T15:35:32;4.37;;;2.77;;
7057;SDS011;3570;43.080;25.628;2022-11-02T15:38:20;3.77;;;2.77;;
7057;SDS011;3570;43.080;25.628;2022-11-02T15:47:47;9.47;;;4.47;;
7057;SDS011;3570;43.080;25.628;2022-11-02T16:00:27;8.50;;;3.80;;
7057;SDS011;3570;43.080;25.628;2022-11-02T16:03:15;5.53;;;2.90;;
7057;SDS011;3570;43.080;25.628;2022-11-02T16:06:00;6.40;;;3.53;;
7057;SDS011;3570;43.080;25.628;2022-11-02T16:08:44;14.93;;;5.47;;
7057;SDS011;3570;43.080;25.628;2022-11-02T16:11:29;8.53;;;3.20;;
7057;SDS011;3570;43.080;25.628;2022-11-02T16:14:16;5.60;;;3.43;;
7057;SDS011;3570;43.080;25.628;2022-11-02T16:17:01;14.27;;;6.03;;
7057;SDS011;3570;43.080;25.628;2022-11-02T16:19:45;9.33;;;3.83;;
7057;SDS011;3570;43.080;25.628;2022-11-02T16:22:29;8.40;;;3.63;;
7057;SDS011;3570;43.080;25.628;2022-11-02T16:25:18;7.73;;;3.50;;
7057;SDS011;3570;43.080;25.628;2022-11-02T16:28:24;9.73;;;3.57;;
7057;SDS011;3570;43.080;25.628;2022-11-02T16:31:16;6.37;;;3.13;;
7057;SDS011;3570;43.080;25.628;2022-11-02T16:34:02;9.10;;;3.90;;
7057;SDS011;3570;43.080;25.628;2022-11-02T16:37:02;8.13;;;3.50;;
7057;SDS011;3570;43.080;25.628;2022-11-02T16:39:47;11.20;;;3.67;;
7057;SDS011;3570;43.080;25.628;2022-11-02T16:42:31;5.80;;;3.43;;
7057;SDS011;3570;43.080;25.628;2022-11-02T16:45:32;10.67;;;4.80;;
7057;SDS011;3570;43.080;25.628;2022-11-02T16:48:24;11.37;;;5.33;;
7057;SDS011;3570;43.080;25.628;2022-11-02T16:54:15;12.27;;;4.53;;
7057;SDS011;3570;43.080;25.628;2022-11-02T17:00:15;12.57;;;5.63;;
7057;SDS011;3570;43.080;25.628;2022-11-02T17:03:08;12.10;;;4.93;;
7057;SDS011;3570;43.080;25.628;2022-11-02T17:05:59;8.23;;;4.90;;
7057;SDS011;3570;43.080;25.628;2022-11-02T17:08:49;16.23;;;4.30;;
7057;SDS011;3570;43.080;25.628;2022-11-02T17:11:39;5.23;;;3.57;;
7057;SDS011;3570;43.080;25.628;2022-11-02T17:14:25;11.13;;;4.30;;
7057;SDS011;3570;43.080;25.628;2022-11-02T17:18:12;7.40;;;3.93;;
7057;SDS011;3570;43.080;25.628;2022-11-02T17:20:21;9.27;;;3.90;;
7057;SDS011;3570;43.080;25.628;2022-11-02T17:23:07;11.93;;;4.50;;
7057;SDS011;3570;43.080;25.628;2022-11-02T17:25:53;16.17;;;6.03;;
7057;SDS011;3570;43.080;25.628;2022-11-02T17:32:12;14.90;;;6.20;;
7057;SDS011;3570;43.080;25.628;2022-11-02T17:34:57;11.10;;;5.43;;
7057;SDS011;3570;43.080;25.628;2022-11-02T17:37:41;12.70;;;6.10;;
7057;SDS011;3570;43.080;25.628;2022-11-02T17:40:26;21.30;;;6.60;;
7057;SDS011;3570;43.080;25.628;2022-11-02T17:43:18;11.03;;;6.20;;
7057;SDS011;3570;43.080;25.628;2022-11-02T17:46:07;20.20;;;7.40;;
7057;SDS011;3570;43.080;25.628;2022-11-02T17:48:52;13.10;;;6.33;;
7057;SDS011;3570;43.080;25.628;2022-11-02T17:51:35;13.23;;;6.97;;
7057;SDS011;3570;43.080;25.628;2022-11-02T17:54:21;17.33;;;7.33;;
7057;SDS011;3570;43.080;25.628;2022-11-02T17:57:12;11.53;;;6.63;;
7057;SDS011;3570;43.080;25.628;2022-11-02T17:59:57;14.90;;;6.90;;
7057;SDS011;3570;43.080;25.628;2022-11-02T18:02:41;13.13;;;6.57;;
7057;SDS011;3570;43.080;25.628;2022-11-02T18:05:28;13.40;;;6.20;;
7057;SDS011;3570;43.080;25.628;2022-11-02T18:08:20;18.63;;;6.13;;
7057;SDS011;3570;43.080;25.628;2022-11-02T18:11:04;13.23;;;6.30;;
7057;SDS011;3570;43.080;25.628;2022-11-02T18:13:48;11.57;;;5.33;;
7057;SDS011;3570;43.080;25.628;2022-11-02T18:16:32;17.27;;;7.77;;
7057;SDS011;3570;43.080;25.628;2022-11-02T18:19:16;10.63;;;5.27;;
7057;SDS011;3570;43.080;25.628;2022-11-02T18:22:00;14.07;;;4.80;;
7057;SDS011;3570;43.080;25.628;2022-11-02T18:24:44;10.03;;;5.23;;
7057;SDS011;3570;43.080;25.628;2022-11-02T18:27:28;12.30;;;6.00;;
7057;SDS011;3570;43.080;25.628;2022-11-02T18:30:14;17.87;;;8.20;;
7057;SDS011;3570;43.080;25.628;2022-11-02T18:33:00;18.50;;;6.33;;
7057;SDS011;3570;43.080;25.628;2022-11-02T18:35:45;18.00;;;6.17;;
7057;SDS011;3570;43.080;25.628;2022-11-02T18:38:29;21.37;;;7.40;;
7057;SDS011;3570;43.080;25.628;2022-11-02T18:41:16;14.80;;;7.13;;
7057;SDS011;3570;43.080;25.628;2022-11-02T18:44:16;11.83;;;6.30;;
7057;SDS011;3570;43.080;25.628;2022-11-02T18:47:00;19.63;;;6.20;;
7057;SDS011;3570;43.080;25.628;2022-11-02T18:49:44;14.63;;;5.93;;
7057;SDS011;3570;43.080;25.628;2022-11-02T18:52:28;9.87;;;5.90;;
7057;SDS011;3570;43.080;25.628;2022-11-02T18:55:12;12.07;;;6.30;;
7057;SDS011;3570;43.080;25.628;2022-11-02T18:57:56;11.57;;;5.60;;
7057;SDS011;3570;43.080;25.628;2022-11-02T19:00:40;18.13;;;6.80;;
7057;SDS011;3570;43.080;25.628;2022-11-02T19:03:27;20.50;;;6.87;;
7057;SDS011;3570;43.080;25.628;2022-11-02T19:06:12;18.07;;;7.90;;
7057;SDS011;3570;43.080;25.628;2022-11-02T19:09:15;15.27;;;8.30;;
7057;SDS011;3570;43.080;25.628;2022-11-02T19:12:11;15.17;;;6.53;;
7057;SDS011;3570;43.080;25.628;2022-11-02T19:15:01;15.57;;;6.53;;
7057;SDS011;3570;43.080;25.628;2022-11-02T19:17:45;13.80;;;6.33;;
7057;SDS011;3570;43.080;25.628;2022-11-02T19:20:29;12.83;;;6.13;;
7057;SDS011;3570;43.080;25.628;2022-11-02T19:23:16;14.10;;;7.67;;
7057;SDS011;3570;43.080;25.628;2022-11-02T19:26:00;13.43;;;7.20;;
7057;SDS011;3570;43.080;25.628;2022-11-02T19:28:45;14.23;;;6.70;;
7057;SDS011;3570;43.080;25.628;2022-11-02T19:31:29;12.57;;;6.17;;
7057;SDS011;3570;43.080;25.628;2022-11-02T19:34:13;15.87;;;6.83;;
7057;SDS011;3570;43.080;25.628;2022-11-02T19:36:57;12.87;;;6.10;;
7057;SDS011;3570;43.080;25.628;2022-11-02T19:39:41;9.20;;;4.77;;
7057;SDS011;3570;43.080;25.628;2022-11-02T19:42:25;10.37;;;5.30;;
7057;SDS011;3570;43.080;25.628;2022-11-02T19:45:09;13.67;;;5.13;;